createdAt,value
2023-02-28T00:01:36.305Z,87.40
2023-02-28T00:05:20.897Z,87.70
2023-02-28T00:09:02.874Z,87.90
2023-02-28T00:12:44.602Z,88.20
2023-02-28T00:16:26.409Z,88.40
2023-02-28T00:20:12.804Z,88.70
2023-02-28T00:23:54.621Z,88.90
2023-02-28T00:27:38.040Z,89.00
2023-02-28T00:31:19.821Z,89.10
2023-02-28T00:35:02.011Z,89.20
2023-02-28T00:38:43.848Z,89.30
2023-02-28T00:42:25.629Z,89.40
2023-02-28T00:46:08.638Z,89.40
2023-02-28T00:49:50.430Z,89.50
2023-02-28T00:53:33.618Z,89.40
2023-02-28T00:57:15.396Z,89.40
2023-02-28T01:00:57.253Z,89.40
2023-02-28T01:04:39.165Z,89.40
2023-02-28T01:08:21.079Z,89.30
2023-02-28T01:12:02.812Z,89.40
2023-02-28T01:15:52.614Z,89.30
2023-02-28T01:19:34.527Z,89.20
2023-02-28T01:23:16.282Z,89.30
2023-02-28T01:26:58.021Z,89.30
2023-02-28T01:30:39.798Z,89.30
2023-02-28T01:34:21.525Z,89.20
2023-02-28T01:38:20.409Z,89.20
2023-02-28T01:42:02.542Z,89.10
2023-02-28T01:45:44.448Z,89.30
2023-02-28T01:49:26.226Z,89.40
2023-02-28T01:53:16.137Z,89.60
2023-02-28T01:57:02.287Z,89.80
2023-02-28T02:00:44.221Z,90.00
2023-02-28T02:04:33.445Z,90.10
2023-02-28T02:08:20.768Z,90.10
2023-02-28T02:12:25.180Z,90.30
2023-02-28T02:16:24.745Z,90.30
2023-02-28T02:20:35.947Z,90.30
2023-02-28T02:24:39.443Z,90.40
2023-02-28T02:28:42.413Z,90.40
2023-02-28T02:33:06.268Z,90.50
2023-02-28T02:36:54.986Z,90.50
2023-02-28T02:40:49.855Z,90.50
2023-02-28T02:44:38.935Z,90.50
2023-02-28T02:48:26.330Z,90.60
2023-02-28T02:52:11.940Z,90.90
2023-02-28T02:55:55.431Z,90.70
2023-02-28T02:59:40.769Z,90.80
2023-02-28T03:03:29.829Z,90.80
2023-02-28T03:07:11.653Z,90.80
2023-02-28T03:10:59.423Z,90.80
2023-02-28T03:15:05.449Z,90.70
2023-02-28T03:18:52.970Z,90.70
2023-02-28T03:22:40.739Z,90.70
2023-02-28T03:26:28.066Z,90.60
2023-02-28T03:30:23.453Z,90.60
2023-02-28T03:34:20.017Z,90.60
2023-02-28T03:38:19.143Z,90.60
2023-02-28T03:42:05.515Z,90.60
2023-02-28T03:45:49.898Z,90.70
2023-02-28T03:49:37.133Z,90.70
2023-02-28T03:53:37.058Z,90.70
2023-02-28T03:57:33.470Z,90.70
2023-02-28T04:01:32.086Z,90.70
2023-02-28T04:05:14.157Z,90.80
2023-02-28T04:08:56.704Z,90.80
2023-02-28T04:12:38.493Z,90.80
2023-02-28T04:16:34.035Z,90.80
2023-02-28T04:20:17.192Z,90.80
2023-02-28T04:24:02.086Z,90.80
2023-02-28T04:27:45.537Z,90.80
2023-02-28T04:31:27.915Z,90.80
2023-02-28T04:35:12.282Z,90.80
2023-02-28T04:38:54.775Z,90.90
2023-02-28T04:42:36.839Z,90.80
2023-02-28T04:46:19.362Z,90.80
2023-02-28T04:50:01.121Z,90.90
2023-02-28T04:53:43.638Z,90.90
2023-02-28T04:57:25.448Z,90.80
2023-02-28T05:01:26.864Z,90.90
2023-02-28T05:05:08.835Z,90.80
2023-02-28T05:08:50.953Z,90.90
2023-02-28T05:12:32.684Z,90.90
2023-02-28T05:16:14.551Z,90.80
2023-02-28T05:20:06.513Z,90.80
2023-02-28T05:23:57.182Z,90.80
2023-02-28T05:27:39.053Z,90.80
2023-02-28T05:31:21.165Z,90.80
2023-02-28T05:35:03.195Z,90.80
2023-02-28T05:38:48.154Z,90.80
2023-02-28T05:42:29.903Z,90.80
2023-02-28T05:46:12.784Z,90.80
2023-02-28T05:49:54.529Z,90.80
2023-02-28T05:53:36.849Z,90.80
2023-02-28T05:57:24.324Z,90.80
2023-02-28T06:01:33.101Z,90.80
2023-02-28T06:05:17.627Z,90.90
2023-02-28T06:08:59.369Z,90.90
2023-02-28T06:12:42.628Z,91.00
2023-02-28T06:16:25.418Z,91.00
2023-02-28T06:20:08.178Z,91.00
2023-02-28T06:23:49.892Z,91.00
2023-02-28T06:27:33.281Z,91.00
2023-02-28T06:31:18.019Z,91.00
2023-02-28T06:34:59.834Z,91.00
2023-02-28T06:38:42.060Z,91.00
2023-02-28T06:42:29.672Z,91.00
2023-02-28T06:46:14.839Z,91.10
2023-02-28T06:49:56.662Z,91.10
2023-02-28T06:53:39.564Z,91.10
2023-02-28T06:57:21.300Z,91.10
2023-02-28T07:01:03.702Z,91.20
2023-02-28T07:04:45.786Z,91.20
2023-02-28T07:08:28.085Z,91.50
2023-02-28T07:12:09.864Z,91.20
2023-02-28T07:16:17.752Z,91.30
2023-02-28T07:19:59.509Z,91.30
2023-02-28T07:23:42.510Z,91.40
2023-02-28T07:27:27.181Z,91.50
2023-02-28T07:31:10.490Z,91.60
2023-02-28T07:34:52.386Z,91.70
2023-02-28T07:38:38.416Z,91.70
2023-02-28T07:42:20.749Z,91.80
2023-02-28T07:46:11.792Z,91.80
2023-02-28T07:49:53.808Z,91.90
2023-02-28T07:53:35.552Z,92.20
2023-02-28T07:57:18.039Z,91.90
2023-02-28T08:01:07.481Z,92.00
2023-02-28T08:04:50.316Z,92.00
2023-02-28T08:08:32.530Z,92.10
2023-02-28T08:12:14.314Z,92.10
2023-02-28T08:15:56.799Z,92.20
2023-02-28T08:19:38.732Z,92.20
2023-02-28T08:23:20.757Z,92.30
2023-02-28T08:27:02.509Z,92.30
2023-02-28T08:30:44.310Z,92.30
2023-02-28T08:34:26.170Z,92.40
2023-02-28T08:38:07.910Z,92.50
2023-02-28T08:42:02.058Z,92.50
2023-02-28T08:45:48.651Z,92.50
2023-02-28T08:49:30.448Z,92.60
2023-02-28T08:53:12.185Z,92.60
2023-02-28T08:56:53.935Z,92.60
2023-02-28T09:00:37.678Z,92.70
2023-02-28T09:04:20.600Z,92.70
2023-02-28T09:08:02.957Z,92.80
2023-02-28T09:11:45.113Z,92.80
2023-02-28T09:15:26.889Z,92.90
2023-02-28T09:19:12.365Z,93.00
2023-02-28T09:22:54.135Z,93.00
2023-02-28T09:26:43.227Z,93.20
2023-02-28T09:30:33.348Z,93.20
2023-02-28T09:34:15.222Z,93.20
2023-02-28T09:37:57.302Z,93.20
2023-02-28T09:41:48.407Z,93.20
2023-02-28T09:45:48.484Z,93.20
2023-02-28T09:49:39.135Z,93.20
2023-02-28T09:53:35.102Z,93.30
2023-02-28T09:57:41.071Z,93.30
2023-02-28T10:01:43.751Z,93.60
2023-02-28T10:05:34.023Z,93.30
2023-02-28T10:09:21.781Z,93.40
2023-02-28T10:13:07.847Z,93.50
2023-02-28T10:17:00.306Z,93.50
2023-02-28T10:20:44.588Z,93.40
2023-02-28T10:24:50.026Z,93.40
2023-02-28T10:28:32.099Z,93.40
2023-02-28T10:32:23.951Z,93.50
2023-02-28T10:36:07.824Z,93.50
2023-02-28T10:39:49.844Z,93.40
2023-02-28T10:43:31.703Z,93.30
2023-02-28T10:47:18.772Z,93.30
2023-02-28T10:51:01.369Z,93.10
2023-02-28T10:54:43.121Z,93.00
2023-02-28T10:58:26.697Z,92.70
2023-02-28T11:02:30.349Z,92.50
2023-02-28T11:06:19.550Z,92.50
2023-02-28T11:10:01.305Z,92.20
2023-02-28T11:13:44.223Z,92.00
2023-02-28T11:17:29.882Z,91.80
2023-02-28T11:21:19.442Z,91.70
2023-02-28T11:25:07.606Z,91.50
2023-02-28T11:28:58.614Z,91.20
2023-02-28T11:32:50.160Z,91.10
2023-02-28T11:36:33.598Z,91.20
2023-02-28T11:40:43.775Z,90.80
2023-02-28T11:44:56.057Z,90.80
2023-02-28T11:48:51.947Z,90.60
2023-02-28T11:52:52.642Z,90.40
2023-02-28T11:57:12.466Z,90.60
2023-02-28T12:01:15.183Z,90.60
2023-02-28T12:05:33.137Z,90.30
2023-02-28T12:09:27.988Z,90.00
2023-02-28T12:13:53.371Z,89.30
2023-02-28T12:17:59.682Z,89.70
2023-02-28T12:21:47.509Z,88.80
2023-02-28T12:25:58.169Z,88.60
2023-02-28T12:29:43.524Z,88.00
2023-02-28T12:33:33.647Z,87.70
2023-02-28T12:37:28.733Z,87.90
2023-02-28T12:41:43.182Z,87.70
2023-02-28T12:45:49.514Z,87.90
2023-02-28T12:49:32.587Z,87.80
2023-02-28T12:53:19.210Z,87.00
2023-02-28T12:57:27.997Z,86.80
2023-02-28T13:01:31.227Z,86.80
2023-02-28T13:05:13.370Z,85.70
2023-02-28T13:09:11.446Z,85.30
2023-02-28T13:12:55.907Z,85.20
2023-02-28T13:16:58.567Z,85.00
2023-02-28T13:20:49.278Z,85.60
2023-02-28T13:24:48.773Z,85.60
2023-02-28T13:28:59.525Z,86.20
2023-02-28T13:32:41.342Z,85.50
2023-02-28T13:36:24.656Z,84.50
2023-02-28T13:40:12.370Z,84.20
2023-02-28T13:44:07.113Z,84.10
2023-02-28T13:48:05.885Z,84.10
2023-02-28T13:52:07.624Z,84.00
2023-02-28T13:56:08.146Z,83.40
2023-02-28T13:59:50.068Z,83.00
2023-02-28T14:03:43.615Z,83.00
2023-02-28T14:07:36.099Z,82.80
2023-02-28T14:11:34.053Z,82.60
2023-02-28T14:15:50.339Z,83.30
2023-02-28T14:19:38.047Z,83.10
2023-02-28T14:23:47.676Z,80.60
2023-02-28T14:28:04.061Z,78.00
2023-02-28T14:32:19.999Z,75.10
2023-02-28T14:36:30.099Z,73.40
2023-02-28T14:40:30.614Z,68.40
2023-02-28T14:44:15.305Z,64.60
2023-02-28T14:47:58.958Z,60.40
2023-02-28T14:51:40.868Z,59.20
2023-02-28T14:55:30.845Z,58.30
2023-02-28T14:59:45.444Z,58.10
2023-02-28T15:03:35.169Z,60.50
2023-02-28T15:07:16.972Z,56.20
2023-02-28T15:11:06.235Z,54.40
2023-02-28T15:14:51.727Z,55.00
2023-02-28T15:19:08.913Z,55.50
2023-02-28T15:22:53.856Z,61.20
2023-02-28T15:26:44.498Z,60.60
2023-02-28T15:30:29.497Z,63.30
2023-02-28T15:34:44.263Z,65.20
2023-02-28T15:38:28.151Z,66.50
2023-02-28T15:42:18.705Z,66.10
2023-02-28T15:46:16.124Z,65.20
2023-02-28T15:50:01.981Z,65.80
2023-02-28T15:53:49.443Z,64.80
2023-02-28T15:57:32.081Z,65.70
2023-02-28T16:01:29.728Z,66.70
2023-02-28T16:05:11.674Z,68.10
2023-02-28T16:08:54.145Z,68.70
2023-02-28T16:12:38.998Z,70.10
2023-02-28T16:16:27.089Z,70.60
2023-02-28T16:20:21.553Z,71.30
2023-02-28T16:24:03.385Z,72.30
2023-02-28T16:27:50.339Z,73.00
2023-02-28T16:31:36.729Z,73.50
2023-02-28T16:35:19.592Z,74.60
2023-02-28T16:39:02.544Z,74.70
2023-02-28T16:42:46.331Z,75.10
2023-02-28T16:46:35.417Z,75.40
2023-02-28T16:50:18.857Z,75.80
2023-02-28T16:54:00.576Z,75.90
2023-02-28T16:57:43.429Z,76.20
2023-02-28T17:01:28.751Z,76.60
2023-02-28T17:05:13.313Z,76.70
2023-02-28T17:08:56.067Z,76.90
2023-02-28T17:12:37.792Z,77.60
2023-02-28T17:16:34.633Z,77.20
2023-02-28T17:20:19.169Z,77.90
2023-02-28T17:24:01.226Z,77.80
2023-02-28T17:27:42.964Z,77.90
2023-02-28T17:31:25.888Z,78.30
2023-02-28T17:35:08.440Z,78.50
2023-02-28T17:38:50.522Z,78.60
2023-02-28T17:42:32.443Z,78.90
2023-02-28T17:46:25.121Z,79.10
2023-02-28T17:50:07.479Z,79.40
2023-02-28T17:53:50.108Z,79.40
2023-02-28T17:57:32.046Z,79.60
2023-02-28T18:01:13.956Z,79.80
2023-02-28T18:04:55.737Z,80.20
2023-02-28T18:08:37.612Z,80.30
2023-02-28T18:12:19.413Z,80.50
2023-02-28T18:16:01.288Z,80.70
2023-02-28T18:19:43.081Z,80.80
2023-02-28T18:23:24.801Z,80.90
2023-02-28T18:27:07.140Z,81.10
2023-02-28T18:30:48.904Z,81.10
2023-02-28T18:34:30.695Z,81.10
2023-02-28T18:38:19.286Z,81.40
2023-02-28T18:42:03.808Z,81.70
2023-02-28T18:45:45.578Z,81.90
2023-02-28T18:49:27.321Z,82.00
2023-02-28T18:53:09.243Z,82.30
2023-02-28T18:56:51.094Z,82.80
2023-02-28T19:00:33.324Z,82.60
2023-02-28T19:04:15.652Z,82.70
2023-02-28T19:07:57.398Z,82.90
2023-02-28T19:11:39.216Z,83.30
2023-02-28T19:15:23.732Z,83.30
2023-02-28T19:19:05.785Z,83.40
2023-02-28T19:22:47.570Z,83.70
2023-02-28T19:26:29.694Z,84.00
2023-02-28T19:30:12.678Z,84.10
2023-02-28T19:33:54.652Z,84.20
2023-02-28T19:37:41.445Z,84.60
2023-02-28T19:41:24.326Z,84.80
2023-02-28T19:45:10.014Z,85.00
2023-02-28T19:48:56.208Z,85.30
2023-02-28T19:52:38.911Z,85.50
2023-02-28T19:56:24.868Z,85.80
2023-02-28T20:00:09.260Z,85.80
2023-02-28T20:03:53.311Z,86.00
2023-02-28T20:07:36.308Z,86.20
2023-02-28T20:11:18.252Z,86.50
2023-02-28T20:15:00.043Z,86.50
2023-02-28T20:18:44.234Z,86.50
2023-02-28T20:22:26.049Z,86.50
2023-02-28T20:26:08.023Z,86.40
2023-02-28T20:29:49.854Z,86.40
2023-02-28T20:33:31.856Z,86.40
2023-02-28T20:37:13.625Z,86.20
2023-02-28T20:40:56.410Z,86.10
2023-02-28T20:44:38.118Z,86.00
2023-02-28T20:48:20.071Z,86.60
2023-02-28T20:52:03.145Z,86.00
2023-02-28T20:56:01.886Z,86.30
2023-02-28T20:59:43.629Z,86.20
2023-02-28T21:03:25.493Z,86.00
2023-02-28T21:07:07.245Z,86.00
2023-02-28T21:10:48.978Z,86.10
2023-02-28T21:14:32.142Z,86.10
2023-02-28T21:18:13.871Z,86.10
2023-02-28T21:21:55.894Z,86.00
2023-02-28T21:25:37.644Z,86.10
2023-02-28T21:29:19.434Z,86.10
2023-02-28T21:33:01.276Z,85.90
2023-02-28T21:36:47.666Z,85.80
2023-02-28T21:40:29.518Z,85.90
2023-02-28T21:44:19.151Z,86.00
2023-02-28T21:48:01.401Z,85.70
2023-02-28T21:51:43.575Z,85.80
2023-02-28T21:55:25.493Z,85.60
2023-02-28T21:59:09.363Z,85.70
2023-02-28T22:02:51.137Z,85.50
2023-02-28T22:06:35.759Z,85.30
2023-02-28T22:10:17.672Z,85.30
2023-02-28T22:13:59.535Z,85.40
2023-02-28T22:17:41.501Z,85.50
2023-02-28T22:21:24.096Z,85.50
2023-02-28T22:25:06.672Z,85.60
2023-02-28T22:28:48.981Z,85.80
2023-02-28T22:32:30.994Z,85.80
2023-02-28T22:36:15.394Z,86.00
2023-02-28T22:39:57.144Z,86.10
2023-02-28T22:43:40.672Z,86.40
2023-02-28T22:47:26.389Z,86.80
2023-02-28T22:51:15.046Z,86.80
2023-02-28T22:54:56.775Z,87.00
2023-02-28T22:58:38.527Z,87.00
2023-02-28T23:02:20.308Z,87.10
2023-02-28T23:06:11.011Z,87.00
2023-02-28T23:09:54.648Z,86.80
2023-02-28T23:13:36.547Z,86.90
2023-02-28T23:17:18.386Z,86.50
2023-02-28T23:21:00.354Z,86.60
2023-02-28T23:24:42.088Z,86.50
2023-02-28T23:28:23.816Z,86.40
2023-02-28T23:32:05.795Z,86.30
2023-02-28T23:35:47.781Z,86.10
2023-02-28T23:39:31.262Z,86.00
2023-02-28T23:43:13.060Z,85.90
2023-02-28T23:46:55.629Z,85.80
2023-02-28T23:50:38.188Z,86.10
2023-02-28T23:54:20.260Z,86.30
2023-02-28T23:58:02.038Z,86.40
